Time;durP1;ratioP1;P1;durP2;ratioP2;P2;SDS_P1;SDS_P2;PMS_P1;PMS_P2;Temp;Humidity;BMP_temperature;BMP_pressure;BME280_temperature;BME280_humidity;BME280_pressure;Samples;Min_cycle;Max_cycle;Signal;HPM_P1;HPM_P2
2022/05/31 00:00:33;;;;;;;1.83;1.70;;;18.10;99.90;;;;;;6215008;23;19997;-78
2022/05/31 00:03:01;;;;;;;1.63;1.50;;;18.00;99.90;;;;;;6214975;23;19996;-78
2022/05/31 00:05:27;;;;;;;1.27;1.20;;;18.00;99.90;;;;;;6215146;23;20029;-78
2022/05/31 00:07:53;;;;;;;1.70;1.60;;;18.00;99.90;;;;;;6215078;23;20080;-78
2022/05/31 00:10:19;;;;;;;1.80;1.70;;;18.00;99.90;;;;;;6214944;23;20001;-78
2022/05/31 00:12:45;;;;;;;1.90;1.80;;;18.00;99.90;;;;;;6216569;23;20011;-78
2022/05/31 00:15:14;;;;;;;2.08;1.98;;;17.90;99.90;;;;;;6217026;23;20000;-78
2022/05/31 00:17:41;;;;;;;4.97;1.85;;;17.90;99.90;;;;;;6216806;23;20139;-79
2022/05/31 00:20:09;;;;;;;5.68;2.50;;;17.90;99.90;;;;;;6217041;23;20004;-78
2022/05/31 00:22:36;;;;;;;2.10;2.00;;;17.90;99.90;;;;;;6190543;23;20070;-78
2022/05/31 00:25:04;;;;;;;2.20;2.00;;;17.90;99.90;;;;;;6217071;23;20003;-78
2022/05/31 00:27:29;;;;;;;3.05;2.10;;;17.90;99.90;;;;;;6217043;23;20011;-78
2022/05/31 00:29:55;;;;;;;2.10;1.98;;;17.90;99.90;;;;;;6216848;23;20029;-78
2022/05/31 00:32:28;;;;;;;2.15;1.95;;;17.90;99.90;;;;;;6216959;23;20009;-78
2022/05/31 00:34:56;;;;;;;3.00;2.08;;;17.90;99.90;;;;;;6216924;23;20004;-78
2022/05/31 00:37:23;;;;;;;5.40;2.30;;;17.90;99.90;;;;;;6190134;23;20005;-78
2022/05/31 00:39:49;;;;;;;3.72;2.45;;;17.90;99.90;;;;;;6217027;23;20067;-78
2022/05/31 00:42:21;;;;;;;2.28;2.17;;;17.80;99.90;;;;;;6216800;23;19993;-78
2022/05/31 00:44:48;;;;;;;4.32;2.47;;;17.80;99.90;;;;;;6216803;23;20000;-78
2022/05/31 00:47:43;;;;;;;2.95;2.35;;;17.80;99.90;;;;;;6216697;23;20009;-78
2022/05/31 00:50:19;;;;;;;2.92;2.28;;;17.70;99.90;;;;;;6191283;23;20008;-78
2022/05/31 00:52:48;;;;;;;2.50;1.92;;;17.70;99.90;;;;;;6216963;23;20005;-78
2022/05/31 00:55:31;;;;;;;2.50;2.22;;;17.70;99.90;;;;;;6216877;23;20009;-78
2022/05/31 00:58:12;;;;;;;2.92;2.15;;;17.70;99.90;;;;;;6216745;23;20031;-78
2022/05/31 01:00:40;;;;;;;3.10;2.90;;;17.60;99.90;;;;;;6216749;23;20027;-78
2022/05/31 01:03:08;;;;;;;2.83;2.63;;;17.60;99.90;;;;;;6216527;23;20437;-78
2022/05/31 01:05:34;;;;;;;3.60;2.22;;;17.60;99.90;;;;;;6189740;23;20001;-78
2022/05/31 01:08:01;;;;;;;2.60;2.40;;;17.70;99.90;;;;;;6216835;23;20380;-78
2022/05/31 01:10:27;;;;;;;2.15;2.00;;;17.70;99.90;;;;;;6216521;23;20636;-78
2022/05/31 01:12:55;;;;;;;2.33;1.80;;;17.70;99.90;;;;;;6216513;23;20011;-78
2022/05/31 01:15:22;;;;;;;2.55;2.28;;;17.70;99.90;;;;;;6216533;23;20436;-78
2022/05/31 01:17:48;;;;;;;5.85;2.47;;;17.70;99.90;;;;;;6216359;23;20013;-78
2022/05/31 01:20:20;;;;;;;2.53;2.30;;;17.70;99.90;;;;;;6216632;23;20001;-78
2022/05/31 01:23:01;;;;;;;2.65;2.45;;;17.70;99.90;;;;;;6216214;23;20557;-78
2022/05/31 01:26:08;;;;;;;3.00;2.55;;;17.70;99.90;;;;;;6189542;23;20084;-78
2022/05/31 01:28:52;;;;;;;2.90;2.70;;;17.70;99.90;;;;;;6189457;23;20083;-78
2022/05/31 01:31:51;;;;;;;3.35;2.60;;;17.70;99.90;;;;;;6216481;23;20008;-78
2022/05/31 01:34:38;;;;;;;2.50;2.40;;;17.70;99.90;;;;;;6216364;23;20000;-78
2022/05/31 01:37:05;;;;;;;4.05;2.45;;;17.70;99.90;;;;;;6189747;23;20008;-78
2022/05/31 01:39:51;;;;;;;2.03;1.92;;;17.70;99.90;;;;;;6216457;23;20004;-78
2022/05/31 01:42:42;;;;;;;4.10;2.88;;;17.70;99.90;;;;;;6216368;23;20070;-78
2022/05/31 01:45:15;;;;;;;3.03;2.83;;;17.70;99.90;;;;;;6202529;23;20000;-78
2022/05/31 01:47:44;;;;;;;2.63;2.42;;;17.70;99.90;;;;;;6216214;23;20004;-78
2022/05/31 01:50:15;;;;;;;3.00;2.80;;;17.60;99.90;;;;;;6216178;23;20011;-78
2022/05/31 01:52:41;;;;;;;3.40;2.70;;;17.70;99.90;;;;;;6216329;23;20007;-78
2022/05/31 01:55:09;;;;;;;2.40;2.30;;;17.70;99.90;;;;;;6216212;23;20005;-78
2022/05/31 01:57:36;;;;;;;2.60;2.40;;;17.60;99.90;;;;;;6215846;23;20025;-79
2022/05/31 02:00:11;;;;;;;3.58;3.08;;;17.70;99.90;;;;;;6215899;23;20001;-78
2022/05/31 02:02:37;;;;;;;2.83;2.63;;;17.70;99.90;;;;;;6189126;23;20008;-78
2022/05/31 02:05:04;;;;;;;5.20;2.60;;;17.80;99.90;;;;;;6215713;23;20000;-78
2022/05/31 02:07:30;;;;;;;2.53;2.33;;;17.80;99.90;;;;;;6216082;23;20000;-78
2022/05/31 02:09:57;;;;;;;2.90;2.60;;;17.80;99.90;;;;;;6215973;23;20072;-78
2022/05/31 02:12:25;;;;;;;2.88;2.67;;;17.80;99.90;;;;;;6216072;23;20081;-78
2022/05/31 02:14:51;;;;;;;3.00;2.78;;;17.80;99.90;;;;;;6215963;23;20499;-78
2022/05/31 02:17:17;;;;;;;4.43;2.45;;;17.80;99.90;;;;;;6215627;23;20009;-78
2022/05/31 02:19:44;;;;;;;5.63;2.75;;;17.80;99.90;;;;;;6215989;23;20028;-78
2022/05/31 02:22:13;;;;;;;2.65;2.45;;;17.80;99.90;;;;;;6216098;23;19997;-79
2022/05/31 02:24:40;;;;;;;3.17;2.90;;;17.80;99.90;;;;;;6215957;23;20001;-79
2022/05/31 02:27:07;;;;;;;2.80;2.55;;;17.80;99.90;;;;;;6215941;23;20353;-78
2022/05/31 02:29:36;;;;;;;3.20;2.83;;;17.70;99.90;;;;;;6215845;23;20004;-78
2022/05/31 02:32:04;;;;;;;4.40;3.15;;;17.60;99.90;;;;;;6215652;23;20058;-78
2022/05/31 02:34:36;;;;;;;3.28;3.05;;;17.60;99.90;;;;;;6215326;23;20005;-78
2022/05/31 02:37:03;;;;;;;2.67;2.47;;;17.60;99.90;;;;;;6215415;23;20004;-78
2022/05/31 02:39:29;;;;;;;3.00;2.70;;;17.60;99.90;;;;;;6215864;23;19997;-78
2022/05/31 02:41:56;;;;;;;3.25;2.90;;;17.50;99.90;;;;;;6215849;23;20000;-78
2022/05/31 02:44:23;;;;;;;5.13;2.80;;;17.50;99.90;;;;;;6215510;23;20000;-78
2022/05/31 02:46:49;;;;;;;2.53;2.33;;;17.60;99.90;;;;;;6215790;23;20001;-78
2022/05/31 02:49:14;;;;;;;2.80;2.60;;;17.60;99.90;;;;;;6215702;23;20340;-78
2022/05/31 02:51:43;;;;;;;3.00;2.70;;;17.50;99.90;;;;;;6189048;23;20008;-78
2022/05/31 02:54:11;;;;;;;3.53;3.22;;;17.50;99.90;;;;;;6189148;23;20011;-78
2022/05/31 02:56:38;;;;;;;3.15;2.95;;;17.50;99.90;;;;;;6215733;23;20015;-78
2022/05/31 02:59:05;;;;;;;3.20;2.90;;;17.50;99.90;;;;;;6215683;23;20477;-78
2022/05/31 03:01:36;;;;;;;4.25;2.90;;;17.50;99.90;;;;;;6215696;23;19997;-78
2022/05/31 03:04:03;;;;;;;3.38;2.85;;;17.50;99.90;;;;;;6215360;23;20075;-78
2022/05/31 03:06:29;;;;;;;3.13;2.80;;;17.50;99.90;;;;;;6215601;23;20001;-78
2022/05/31 03:08:54;;;;;;;2.85;2.35;;;17.50;99.90;;;;;;6215698;23;20336;-78
2022/05/31 03:11:26;;;;;;;2.80;2.50;;;17.50;99.90;;;;;;6215568;23;20003;-78
2022/05/31 03:13:58;;;;;;;5.65;2.83;;;17.50;99.90;;;;;;6188205;23;20016;-78
2022/05/31 03:16:25;;;;;;;3.17;2.88;;;17.50;99.90;;;;;;6188879;23;20023;-78
2022/05/31 03:19:02;;;;;;;3.22;2.92;;;17.40;99.90;;;;;;6215311;23;20012;-78
2022/05/31 03:21:35;;;;;;;3.35;3.05;;;17.50;99.90;;;;;;6188841;23;20455;-78
2022/05/31 03:24:07;;;;;;;3.00;2.75;;;17.40;99.90;;;;;;6215339;23;20374;-78
2022/05/31 03:26:37;;;;;;;2.97;2.60;;;17.50;99.90;;;;;;6188457;23;20015;-78
2022/05/31 03:29:04;;;;;;;3.20;2.90;;;17.50;99.90;;;;;;6188911;23;20339;-79
2022/05/31 03:31:31;;;;;;;3.10;2.90;;;17.50;99.90;;;;;;6215337;23;20015;-79
2022/05/31 03:33:58;;;;;;;4.10;3.45;;;17.40;99.90;;;;;;6215284;23;20032;-78
2022/05/31 03:36:24;;;;;;;3.75;2.80;;;17.50;99.90;;;;;;6215158;23;20005;-78
2022/05/31 03:38:49;;;;;;;4.55;3.70;;;17.40;99.90;;;;;;6215293;23;20007;-79
2022/05/31 03:41:15;;;;;;;2.95;2.75;;;17.50;99.90;;;;;;6215484;23;20000;-78
2022/05/31 03:43:42;;;;;;;2.97;2.72;;;17.40;99.90;;;;;;6215190;23;20042;-78
2022/05/31 03:46:16;;;;;;;4.70;3.65;;;17.40;99.90;;;;;;6215171;23;20004;-78
2022/05/31 03:48:42;;;;;;;2.70;2.50;;;17.40;99.90;;;;;;6188377;23;20001;-78
2022/05/31 03:51:11;;;;;;;2.70;2.55;;;17.40;99.90;;;;;;6215143;23;20008;-79
2022/05/31 03:53:38;;;;;;;3.53;3.22;;;17.40;99.90;;;;;;6215186;23;20429;-78
2022/05/31 03:56:06;;;;;;;3.70;3.08;;;17.30;99.90;;;;;;6215104;23;20096;-79
2022/05/31 03:58:33;;;;;;;3.30;2.90;;;17.40;99.90;;;;;;6215310;23;19997;-78
2022/05/31 04:00:59;;;;;;;2.85;2.65;;;17.30;99.90;;;;;;6215295;23;20031;-78
2022/05/31 04:03:25;;;;;;;3.40;3.10;;;17.40;99.90;;;;;;6214971;23;19997;-77
2022/05/31 04:05:52;;;;;;;2.65;2.45;;;17.40;99.90;;;;;;6215171;23;20304;-78
2022/05/31 04:08:19;;;;;;;3.13;2.92;;;17.40;99.90;;;;;;6215172;23;20031;-78
2022/05/31 04:10:45;;;;;;;8.88;2.65;;;17.40;99.90;;;;;;6215300;23;20498;-78
2022/05/31 04:13:11;;;;;;;5.13;2.47;;;17.40;99.90;;;;;;6215127;23;20001;-78
2022/05/31 04:15:37;;;;;;;2.95;2.65;;;17.40;99.90;;;;;;6215210;23;20016;-78
2022/05/31 04:18:04;;;;;;;4.72;2.78;;;17.40;99.90;;;;;;6214628;23;20013;-78
2022/05/31 04:20:31;;;;;;;2.72;2.53;;;17.40;99.90;;;;;;6188113;23;20004;-78
2022/05/31 04:23:58;;;;;;;4.88;2.83;;;17.40;99.90;;;;;;6188506;23;20001;-78
2022/05/31 04:25:43;;;;;;;3.95;2.75;;;17.40;99.90;;;;;;6214792;23;20023;-78
2022/05/31 04:28:09;;;;;;;3.20;3.00;;;17.40;99.90;;;;;;6215098;23;20004;-78
2022/05/31 04:30:36;;;;;;;3.38;3.05;;;17.50;99.90;;;;;;6215052;23;20011;-78
2022/05/31 04:33:02;;;;;;;3.05;2.85;;;17.50;99.90;;;;;;6215114;23;20059;-78
2022/05/31 04:35:27;;;;;;;3.78;3.42;;;17.40;99.90;;;;;;6214891;23;20004;-78
2022/05/31 04:37:53;;;;;;;2.67;2.38;;;17.40;99.90;;;;;;6214966;23;20086;-78
2022/05/31 04:40:19;;;;;;;3.45;3.10;;;17.40;99.90;;;;;;6215007;23;20010;-78
2022/05/31 04:42:45;;;;;;;3.55;3.28;;;17.40;99.90;;;;;;6188307;23;20028;-78
2022/05/31 04:45:11;;;;;;;3.13;2.92;;;17.50;99.90;;;;;;6188241;23;20005;-78
2022/05/31 04:47:37;;;;;;;2.95;2.72;;;17.40;99.90;;;;;;6214921;23;20093;-78
2022/05/31 04:50:03;;;;;;;3.10;2.70;;;17.40;99.90;;;;;;6215066;23;20005;-78
2022/05/31 04:52:29;;;;;;;3.50;3.03;;;17.50;99.90;;;;;;6214732;23;20007;-78
2022/05/31 04:54:54;;;;;;;3.63;3.05;;;17.50;99.90;;;;;;6215095;23;20004;-78
2022/05/31 04:57:20;;;;;;;3.50;3.05;;;17.50;99.90;;;;;;6215152;23;20047;-78
2022/05/31 04:59:46;;;;;;;3.47;3.17;;;17.60;99.90;;;;;;6216596;23;20458;-78
2022/05/31 05:02:12;;;;;;;6.20;3.47;;;17.70;99.90;;;;;;6216659;23;20439;-78
2022/05/31 05:04:38;;;;;;;4.38;3.15;;;17.70;99.90;;;;;;6216714;23;19997;-78
2022/05/31 05:07:04;;;;;;;4.07;3.67;;;17.70;99.90;;;;;;6216668;23;20000;-78
2022/05/31 05:09:30;;;;;;;3.85;3.55;;;17.80;99.90;;;;;;6216559;23;20108;-78
2022/05/31 05:11:56;;;;;;;4.53;3.47;;;17.80;99.90;;;;;;6216558;23;20079;-78
2022/05/31 05:14:22;;;;;;;4.13;3.83;;;17.70;99.90;;;;;;6216693;23;19992;-78
2022/05/31 05:16:48;;;;;;;4.43;4.03;;;17.80;99.90;;;;;;6216596;23;20384;-78
2022/05/31 05:19:16;;;;;;;5.40;4.05;;;17.80;99.90;;;;;;6216280;23;20428;-77
2022/05/31 05:21:42;;;;;;;3.92;3.45;;;17.80;99.90;;;;;;6189952;23;20028;-77
2022/05/31 05:24:08;;;;;;;4.80;3.75;;;17.90;99.90;;;;;;6216448;23;19997;-78
2022/05/31 05:26:35;;;;;;;3.75;2.85;;;17.90;99.90;;;;;;6216389;23;20000;-78
2022/05/31 05:31:52;;;;;;;3.90;2.70;;;18.00;99.90;;;;;;6216487;23;20143;-77
2022/05/31 05:34:19;;;;;;;4.72;2.78;;;18.10;99.90;;;;;;6189237;23;20008;-78
2022/05/31 05:36:45;;;;;;;2.95;2.72;;;18.20;99.90;;;;;;6189441;23;20066;-78
2022/05/31 05:39:12;;;;;;;5.03;3.40;;;18.30;99.90;;;;;;6189363;23;20011;-78
2022/05/31 05:41:40;;;;;;;5.85;3.25;;;18.30;99.90;;;;;;6216269;23;20007;-78
2022/05/31 05:44:06;;;;;;;4.07;2.75;;;18.40;99.90;;;;;;6216212;23;20083;-78
2022/05/31 05:46:36;;;;;;;3.20;2.90;;;18.40;99.90;;;;;;6216195;23;20058;-78
2022/05/31 05:49:02;;;;;;;2.97;2.70;;;18.50;99.90;;;;;;6216339;23;20001;-78
2022/05/31 05:51:30;;;;;;;3.10;2.83;;;18.50;99.90;;;;;;6189587;23;20004;-78
2022/05/31 05:53:56;;;;;;;4.75;2.88;;;18.60;99.90;;;;;;6216158;23;20055;-78
2022/05/31 05:56:23;;;;;;;3.60;2.80;;;18.50;99.90;;;;;;6215854;23;20005;-78
2022/05/31 05:58:49;;;;;;;4.20;3.20;;;18.60;99.90;;;;;;6216032;23;19992;-78
2022/05/31 06:01:22;;;;;;;4.07;3.30;;;18.60;99.90;;;;;;6216056;23;20001;-78
2022/05/31 06:03:59;;;;;;;3.60;3.33;;;18.60;99.90;;;;;;6215876;23;20012;-78
2022/05/31 06:06:29;;;;;;;5.38;3.75;;;18.70;99.90;;;;;;6215767;23;20379;-78
2022/05/31 06:09:01;;;;;;;4.90;3.38;;;18.80;99.90;;;;;;6189335;23;20092;-78
2022/05/31 06:11:42;;;;;;;3.53;3.17;;;18.80;99.90;;;;;;6215980;23;20008;-78
2022/05/31 06:14:15;;;;;;;4.90;3.53;;;18.90;99.90;;;;;;6188833;23;20005;-78
2022/05/31 06:16:46;;;;;;;4.72;4.28;;;18.90;99.90;;;;;;6215466;23;20005;-78
2022/05/31 06:19:22;;;;;;;7.10;3.97;;;19.00;99.90;;;;;;6215413;23;20448;-78
2022/05/31 06:21:50;;;;;;;4.55;3.55;;;19.00;99.90;;;;;;6216011;23;20024;-78
2022/05/31 06:24:20;;;;;;;6.68;4.43;;;19.10;99.90;;;;;;6215903;23;20000;-78
2022/05/31 06:26:46;;;;;;;8.23;3.83;;;19.10;99.90;;;;;;6215939;23;20143;-78
2022/05/31 06:29:12;;;;;;;5.25;3.70;;;19.10;99.90;;;;;;6189492;23;20044;-78
2022/05/31 06:31:38;;;;;;;4.10;3.70;;;19.20;99.90;;;;;;6215845;23;20008;-78
2022/05/31 06:34:04;;;;;;;4.78;4.05;;;19.30;99.90;;;;;;6215803;23;20094;-78
2022/05/31 06:36:30;;;;;;;4.38;4.00;;;19.30;99.90;;;;;;6215588;23;20421;-78
2022/05/31 06:38:58;;;;;;;4.60;3.83;;;19.30;99.90;;;;;;6215908;23;20038;-78
2022/05/31 06:41:23;;;;;;;4.43;4.10;;;19.30;99.90;;;;;;6215733;23;20101;-78
2022/05/31 06:43:49;;;;;;;4.53;4.00;;;19.30;99.90;;;;;;6215782;23;20421;-77
2022/05/31 06:46:15;;;;;;;6.10;4.63;;;19.40;99.90;;;;;;6215963;23;20000;-78
2022/05/31 06:48:41;;;;;;;5.85;4.82;;;19.40;99.90;;;;;;6189147;23;20337;-78
2022/05/31 06:51:10;;;;;;;7.63;4.15;;;19.40;99.90;;;;;;6189216;23;20001;-77
2022/05/31 06:58:52;;;;;;;5.25;4.43;;;19.50;99.90;;;;;;6215811;23;20013;-78
2022/05/31 07:01:19;;;;;;;6.10;4.97;;;19.60;99.90;;;;;;6215435;23;20324;-78
2022/05/31 07:03:45;;;;;;;5.60;5.00;;;19.60;99.90;;;;;;6215667;23;19997;-77
2022/05/31 07:06:11;;;;;;;4.50;4.10;;;19.70;99.90;;;;;;6215541;23;20007;-78
2022/05/31 07:08:37;;;;;;;4.85;4.40;;;19.80;99.90;;;;;;6215642;23;20455;-78
2022/05/31 07:11:05;;;;;;;5.50;4.45;;;19.90;99.90;;;;;;6188898;23;20004;-78
2022/05/31 07:13:40;;;;;;;5.18;4.75;;;19.90;99.90;;;;;;6215266;23;19997;-78
2022/05/31 07:16:06;;;;;;;5.68;4.78;;;19.90;99.90;;;;;;6214136;23;20517;-77
2022/05/31 07:18:31;;;;;;;9.50;5.20;;;20.00;99.90;;;;;;6214861;23;20036;-78
2022/05/31 07:20:57;;;;;;;5.68;4.47;;;20.00;99.90;;;;;;6214949;23;20003;-77
2022/05/31 07:23:23;;;;;;;6.75;4.38;;;20.10;99.90;;;;;;6215197;23;20004;-78
2022/05/31 07:25:48;;;;;;;6.97;5.63;;;20.20;99.90;;;;;;6215186;23;20008;-77
2022/05/31 07:28:14;;;;;;;5.32;4.82;;;20.20;99.90;;;;;;6215507;23;20012;-77
2022/05/31 07:30:40;;;;;;;4.63;4.18;;;20.20;99.90;;;;;;6215506;23;20004;-77
2022/05/31 07:33:06;;;;;;;5.05;4.25;;;20.20;99.90;;;;;;6215274;23;20387;-77
2022/05/31 07:35:32;;;;;;;4.45;3.88;;;20.30;99.90;;;;;;6215676;23;20005;-76
2022/05/31 07:37:57;;;;;;;4.47;4.07;;;20.30;99.90;;;;;;6215139;23;20001;-77
2022/05/31 07:40:23;;;;;;;6.30;4.80;;;20.40;99.90;;;;;;6215305;23;20004;-77
2022/05/31 07:42:49;;;;;;;6.25;4.28;;;20.40;99.90;;;;;;6215155;23;20023;-76
2022/05/31 07:45:15;;;;;;;4.43;3.88;;;20.40;99.90;;;;;;6215310;23;20460;-76
2022/05/31 07:47:40;;;;;;;3.97;3.63;;;20.50;99.90;;;;;;6215403;23;20413;-76
2022/05/31 07:50:07;;;;;;;4.20;3.72;;;20.60;99.90;;;;;;6215158;23;20008;-76
2022/05/31 07:52:33;;;;;;;6.57;4.15;;;20.60;99.90;;;;;;6188079;23;20009;-76
2022/05/31 07:54:58;;;;;;;3.78;3.47;;;20.80;99.90;;;;;;6188410;23;20087;-76
2022/05/31 08:00:10;;;;;;;4.82;4.03;;;20.80;99.70;;;;;;6215337;23;20408;-76
2022/05/31 08:02:36;;;;;;;4.63;3.85;;;20.80;99.90;;;;;;6215038;23;20074;-76
2022/05/31 08:05:01;;;;;;;3.83;3.53;;;20.70;99.30;;;;;;6215158;23;20476;-77
2022/05/31 08:07:27;;;;;;;3.45;3.15;;;20.70;99.80;;;;;;6215109;23;20051;-76
2022/05/31 08:09:53;;;;;;;4.05;3.72;;;20.70;99.90;;;;;;6187885;23;20340;-76
2022/05/31 08:12:18;;;;;;;7.32;4.13;;;20.70;99.90;;;;;;6215132;23;20000;-76
2022/05/31 08:14:44;;;;;;;4.55;4.15;;;20.80;99.90;;;;;;6188017;23;20009;-77
2022/05/31 08:17:10;;;;;;;5.35;4.57;;;20.80;99.90;;;;;;6215013;23;20000;-76
2022/05/31 08:19:38;;;;;;;4.90;4.40;;;20.80;99.90;;;;;;6215494;23;20009;-77
2022/05/31 08:22:04;;;;;;;4.03;3.72;;;20.80;99.90;;;;;;6215181;23;19997;-77
2022/05/31 08:24:30;;;;;;;4.70;3.75;;;20.80;99.90;;;;;;6215043;23;20375;-76
2022/05/31 08:26:56;;;;;;;6.63;4.45;;;20.90;99.90;;;;;;6215262;23;20058;-76
2022/05/31 08:29:23;;;;;;;5.03;3.95;;;21.00;99.90;;;;;;6215143;23;20007;-77
2022/05/31 08:31:49;;;;;;;6.35;3.95;;;21.00;99.90;;;;;;6215280;23;20027;-76
2022/05/31 08:34:14;;;;;;;7.00;4.38;;;21.00;99.80;;;;;;6217166;23;20405;-77
2022/05/31 08:36:40;;;;;;;7.07;4.45;;;21.00;99.80;;;;;;6216952;23;20015;-77
2022/05/31 08:39:06;;;;;;;6.55;4.07;;;21.00;99.90;;;;;;6217201;23;20001;-76
2022/05/31 08:41:44;;;;;;;4.97;4.28;;;21.10;99.90;;;;;;6190245;23;20007;-76
2022/05/31 08:44:16;;;;;;;4.75;4.03;;;21.10;99.90;;;;;;6216703;23;20001;-76
2022/05/31 08:47:00;;;;;;;4.00;3.65;;;21.10;99.60;;;;;;6190365;23;20012;-77
2022/05/31 08:53:12;;;;;;;4.00;3.70;;;21.10;99.40;;;;;;6188190;23;20011;-76
2022/05/31 08:58:33;;;;;;;4.07;3.53;;;21.20;99.90;;;;;;6216902;23;20055;-77
2022/05/31 09:01:02;;;;;;;4.70;3.67;;;21.30;99.90;;;;;;6216950;23;19997;-76
2022/05/31 09:03:42;;;;;;;4.18;3.78;;;21.30;99.70;;;;;;6216643;23;20215;-77
2022/05/31 09:06:14;;;;;;;4.05;3.55;;;21.30;98.50;;;;;;6216847;23;19993;-76
2022/05/31 09:08:58;;;;;;;4.63;3.60;;;21.30;98.90;;;;;;6216864;23;20008;-77
2022/05/31 09:11:35;;;;;;;4.35;3.83;;;21.30;98.60;;;;;;6216917;23;20028;-77
2022/05/31 09:14:16;;;;;;;6.32;4.03;;;21.30;98.30;;;;;;6216740;23;20409;-77
2022/05/31 09:16:48;;;;;;;6.10;3.95;;;21.30;98.40;;;;;;6216528;23;20011;-76
2022/05/31 09:19:34;;;;;;;4.32;3.90;;;21.40;98.40;;;;;;6215443;23;20012;-77
2022/05/31 09:22:01;;;;;;;4.45;3.53;;;21.50;98.00;;;;;;6213253;23;20461;-77
2022/05/31 09:24:28;;;;;;;7.28;4.10;;;21.50;97.90;;;;;;6212890;23;20078;-77
2022/05/31 09:27:11;;;;;;;3.30;3.10;;;21.50;97.40;;;;;;6213432;23;20005;-77
2022/05/31 09:30:25;;;;;;;4.47;3.55;;;21.50;97.60;;;;;;6213257;23;20392;-77
2022/05/31 09:33:11;;;;;;;3.85;3.55;;;21.70;97.90;;;;;;6091495;23;20069;-77
2022/05/31 09:36:11;;;;;;;3.60;3.30;;;21.70;97.50;;;;;;6092020;23;20097;-77
2022/05/31 09:39:14;;;;;;;4.40;3.75;;;21.80;97.60;;;;;;6201361;23;20453;-77
2022/05/31 09:41:59;;;;;;;5.13;3.70;;;21.90;97.30;;;;;;6213575;23;20046;-76
2022/05/31 09:44:33;;;;;;;3.22;2.97;;;21.90;97.70;;;;;;6212432;23;20004;-76
2022/05/31 09:47:27;;;;;;;4.30;3.95;;;21.90;97.60;;;;;;6213508;23;20079;-76
2022/05/31 09:49:54;;;;;;;4.30;3.90;;;21.90;97.30;;;;;;6212197;23;20451;-77
2022/05/31 09:52:47;;;;;;;2.97;2.78;;;21.90;98.80;;;;;;6212410;23;20004;-76
2022/05/31 09:58:13;;;;;;;4.32;3.80;;;21.90;98.80;;;;;;6166201;23;20031;-77
2022/05/31 10:01:01;;;;;;;4.90;3.65;;;22.20;99.30;;;;;;6213147;23;20005;-77
2022/05/31 10:04:00;;;;;;;3.83;3.53;;;22.40;99.70;;;;;;6212613;23;20345;-77
2022/05/31 10:06:30;;;;;;;4.82;3.80;;;22.60;98.80;;;;;;6213790;23;20058;-76
2022/05/31 10:08:56;;;;;;;4.22;3.70;;;22.50;96.70;;;;;;6186427;23;20005;-77
2022/05/31 10:11:23;;;;;;;4.63;3.67;;;22.60;96.80;;;;;;6213017;23;20009;-76
2022/05/31 10:14:03;;;;;;;6.00;4.25;;;22.70;96.70;;;;;;6213118;23;20004;-77
2022/05/31 10:16:32;;;;;;;6.55;3.50;;;22.60;96.20;;;;;;6213262;23;20000;-76
2022/05/31 10:18:59;;;;;;;3.67;3.45;;;22.80;97.30;;;;;;6213273;23;20009;-77
2022/05/31 10:21:26;;;;;;;4.63;3.90;;;22.80;96.20;;;;;;6212702;23;20408;-76
2022/05/31 10:23:52;;;;;;;3.65;3.40;;;22.70;96.50;;;;;;6213225;23;20050;-77
2022/05/31 10:26:33;;;;;;;3.35;3.10;;;22.70;97.20;;;;;;6186313;23;20052;-77
2022/05/31 10:29:01;;;;;;;4.57;4.13;;;22.70;96.50;;;;;;6212372;23;20070;-77
2022/05/31 10:31:47;;;;;;;5.57;3.63;;;22.60;96.10;;;;;;6212570;23;20086;-75
2022/05/31 10:34:34;;;;;;;3.55;3.25;;;22.60;96.70;;;;;;6212640;23;20001;-77
2022/05/31 10:37:02;;;;;;;3.17;2.97;;;22.60;97.10;;;;;;6213214;23;20328;-76
2022/05/31 10:39:32;;;;;;;4.68;3.25;;;22.60;95.70;;;;;;6212906;23;20007;-77
2022/05/31 10:42:00;;;;;;;3.65;3.20;;;22.50;95.40;;;;;;6212416;23;20000;-76
2022/05/31 10:44:32;;;;;;;6.13;3.80;;;22.50;95.40;;;;;;6212998;23;19997;-77
2022/05/31 10:47:14;;;;;;;6.57;3.85;;;22.50;96.20;;;;;;6213222;23;20000;-77
2022/05/31 10:49:41;;;;;;;4.95;4.05;;;22.50;97.40;;;;;;6212816;23;20001;-76
2022/05/31 10:52:15;;;;;;;12.95;5.25;;;22.50;96.90;;;;;;6212515;23;20004;-76
2022/05/31 10:54:46;;;;;;;5.05;4.55;;;22.50;97.10;;;;;;6212018;23;20374;-77
2022/05/31 10:57:50;;;;;;;5.25;4.15;;;22.60;96.50;;;;;;6212017;23;20012;-76
2022/05/31 11:00:44;;;;;;;7.32;4.57;;;22.60;96.20;;;;;;6212105;23;20004;-75
2022/05/31 11:03:37;;;;;;;4.35;3.95;;;22.60;95.90;;;;;;6211936;23;20001;-77
2022/05/31 11:06:08;;;;;;;9.65;5.47;;;22.70;97.50;;;;;;6212928;23;19997;-77
2022/05/31 11:12:17;;;;;;;10.68;5.55;;;23.10;97.40;;;;;;6212864;23;20015;-76
2022/05/31 11:14:50;;;;;;;6.30;5.70;;;23.40;95.90;;;;;;6211263;23;20008;-76
2022/05/31 11:17:21;;;;;;;9.35;5.85;;;23.30;96.40;;;;;;6211534;23;20035;-76
2022/05/31 11:19:59;;;;;;;7.93;5.82;;;23.40;95.30;;;;;;6212427;23;20011;-76
2022/05/31 11:22:48;;;;;;;9.40;5.88;;;23.50;95.10;;;;;;6211898;23;20029;-75
2022/05/31 11:25:31;;;;;;;5.40;4.90;;;23.50;96.60;;;;;;6210685;23;20004;-76
2022/05/31 11:28:17;;;;;;;4.90;4.13;;;23.60;96.70;;;;;;6211771;23;20389;-77
2022/05/31 11:31:04;;;;;;;6.45;4.45;;;23.80;95.60;;;;;;6213942;23;20083;-76
2022/05/31 11:33:40;;;;;;;5.13;4.70;;;23.80;95.20;;;;;;6215244;23;20008;-75
2022/05/31 11:36:28;;;;;;;5.95;5.35;;;23.70;96.00;;;;;;6215604;23;20035;-76
2022/05/31 11:39:17;;;;;;;10.00;5.68;;;23.70;95.40;;;;;;6215309;23;20004;-75
2022/05/31 11:42:00;;;;;;;4.75;4.40;;;24.00;96.60;;;;;;6215329;23;20440;-76
2022/05/31 11:44:45;;;;;;;8.85;5.90;;;24.20;97.10;;;;;;6215324;23;20080;-76
2022/05/31 11:47:19;;;;;;;6.13;5.20;;;24.10;95.10;;;;;;6215453;23;20062;-76
2022/05/31 11:49:59;;;;;;;5.03;4.55;;;24.00;95.90;;;;;;6215591;23;20108;-76
2022/05/31 11:52:48;;;;;;;4.85;4.45;;;24.00;96.10;;;;;;6215137;23;20004;-76
2022/05/31 11:55:25;;;;;;;5.25;4.70;;;24.10;96.10;;;;;;6215127;23;20079;-76
2022/05/31 11:58:06;;;;;;;5.15;4.75;;;24.30;95.70;;;;;;6214884;23;20001;-76
2022/05/31 12:00:41;;;;;;;4.70;4.30;;;24.50;97.20;;;;;;6214940;23;19997;-76
2022/05/31 12:03:19;;;;;;;8.40;4.93;;;24.70;95.40;;;;;;6214977;23;20325;-76
2022/05/31 12:05:50;;;;;;;10.18;6.78;;;25.10;95.30;;;;;;6214834;23;20512;-76
2022/05/31 12:08:36;;;;;;;27.33;6.70;;;25.10;94.30;;;;;;6216946;23;20490;-76
2022/05/31 12:11:12;;;;;;;8.48;6.50;;;24.80;93.60;;;;;;6155512;23;20004;-76
2022/05/31 12:13:44;;;;;;;7.65;5.80;;;24.80;93.70;;;;;;6217055;23;20456;-76
2022/05/31 12:16:10;;;;;;;;;;;24.60;94.40;;;;;;6217858;23;20001;-76
2022/05/31 12:19:14;;;;;;;12.70;6.22;;;24.70;94.60;;;;;;6216734;23;19915;-76
2022/05/31 12:21:46;;;;;;;8.25;5.80;;;24.90;94.90;;;;;;6216746;23;20102;-76
2022/05/31 12:24:27;;;;;;;8.48;6.40;;;25.10;94.90;;;;;;6217315;23;19993;-75
2022/05/31 12:27:04;;;;;;;6.82;5.40;;;25.20;93.80;;;;;;6190388;23;20015;-76
2022/05/31 12:29:48;;;;;;;7.95;7.15;;;25.30;94.40;;;;;;6217264;23;20356;-76
2022/05/31 12:32:26;;;;;;;7.50;6.70;;;25.10;92.80;;;;;;6216837;23;20008;-75
2022/05/31 12:34:52;;;;;;;6.25;5.65;;;25.10;93.60;;;;;;6217114;23;20050;-75
2022/05/31 12:37:18;;;;;;;5.47;4.97;;;25.10;94.90;;;;;;6216774;23;20004;-76
2022/05/31 12:39:46;;;;;;;10.95;4.88;;;25.10;93.60;;;;;;6216733;23;20123;-75
2022/05/31 12:42:36;;;;;;;5.53;4.95;;;25.20;94.00;;;;;;6216797;23;20001;-75
2022/05/31 12:45:28;;;;;;;7.88;4.25;;;25.10;93.10;;;;;;6216753;23;20001;-75
2022/05/31 12:48:04;;;;;;;7.82;4.63;;;25.00;93.30;;;;;;6211392;23;20004;-75
2022/05/31 12:50:56;;;;;;;7.35;4.28;;;25.00;92.90;;;;;;6217165;23;20487;-76
2022/05/31 12:53:37;;;;;;;5.68;5.18;;;25.00;92.80;;;;;;6210899;23;20001;-75
2022/05/31 12:56:05;;;;;;;5.28;4.72;;;25.00;93.20;;;;;;6217184;23;20004;-76
2022/05/31 12:58:43;;;;;;;7.60;3.78;;;25.00;93.40;;;;;;6216716;23;20008;-76
2022/05/31 13:01:11;;;;;;;7.65;5.28;;;25.00;92.80;;;;;;6216865;23;20079;-75
2022/05/31 13:03:43;;;;;;;7.90;4.85;;;24.90;93.00;;;;;;6216693;23;20008;-76
2022/05/31 13:06:42;;;;;;;5.28;4.78;;;24.80;93.50;;;;;;6216864;23;20080;-75
2022/05/31 13:09:36;;;;;;;6.20;4.68;;;24.80;93.80;;;;;;6216561;23;20000;-76
2022/05/31 13:20:59;;;;;;;7.17;4.30;;;24.60;93.30;;;;;;6216504;23;20055;-75
2022/05/31 13:23:34;;;;;;;6.57;4.63;;;24.50;94.00;;;;;;6216411;23;20246;-75
2022/05/31 13:26:08;;;;;;;5.85;5.25;;;24.50;93.90;;;;;;6216291;23;20455;-76
2022/05/31 13:28:50;;;;;;;5.50;4.45;;;24.40;93.80;;;;;;6215950;23;20368;-76
2022/05/31 13:31:18;;;;;;;;;;;24.50;93.70;;;;;;6216666;23;20000;-75
2022/05/31 13:33:46;;;;;;;7.38;4.13;;;24.40;93.80;;;;;;6215649;23;19974;-76
2022/05/31 13:36:23;;;;;;;7.70;4.30;;;24.40;93.50;;;;;;6216006;23;20004;-75
2022/05/31 13:38:54;;;;;;;11.45;5.28;;;24.40;93.80;;;;;;6216381;23;20005;-75
2022/05/31 13:41:21;;;;;;;9.95;4.72;;;24.50;93.80;;;;;;6216585;23;20000;-76
2022/05/31 13:43:52;;;;;;;10.40;5.28;;;24.50;94.00;;;;;;6216175;23;20448;-75